Position Fahrer Laps Zeit Diff Beste Runde Fahrzeug Status Gesamt Bonuspunkte Strafpunkte
1 Patrick Pache 10 15:15.534 - 1:29.921 BMW M235i Racing Beendet 60 0 0
2 Thomas Pache 10 15:23.175 0:07.641 1:29.957 BMW M235i Racing Beendet 55 0 0
3 Nicolas Schnabel 10 15:23.637 0:08.103 1:30.611 BMW M235i Racing Beendet 51 0 0
4 Georg Ortner 10 15:23.686 0:08.152 1:30.064 BMW M235i Racing Beendet 48 0 0
5 Franz Mayr 10 15:29.979 0:14.445 1:30.889 BMW M235i Racing Beendet 46 0 0
6 Sebastian Bilstein 10 15:36.633 0:21.099 1:31.012 BMW M235i Racing Beendet 44 0 0
7 Robert Winkler 10 15:40.646 0:25.112 1:30.054 BMW M235i Racing Beendet 42 0 0
8 Stefan Ahlers 10 15:41.072 0:25.538 1:30.515 BMW M235i Racing Beendet 40 0 0
9 Reinhard Hiebl 10 15:45.070 0:29.536 1:31.604 BMW M235i Racing Beendet 38 0 0
10 Marcel Jochheim 10 15:47.982 0:32.448 1:33.312 BMW M235i Racing Beendet 36 0 0
11 kL1ck kL1ck 10 15:48.114 0:32.580 1:32.895 BMW M235i Racing Beendet 34 0 0
12 Sirko Sundermann 10 15:59.402 0:43.868 1:33.880 BMW M235i Racing Beendet 33 0 0
13 Pete Snake 10 16:00.591 0:45.057 1:33.259 BMW M235i Racing Beendet 32 0 0
14 Thomas Friedrich 10 16:01.439 0:45.905 1:33.384 BMW M235i Racing Beendet 31 0 0
15 Timo Heyden 10 16:02.687 0:47.153 1:32.360 BMW M235i Racing Beendet 30 0 0
16 Till Ludwig 10 16:25.287 1:09.753 1:34.989 BMW M235i Racing Beendet 29 0 0
17 Guido Wippler 10 16:45.793 1:30.259 1:36.430 BMW M235i Racing Beendet 28 0 0
18 Stefan Moebus 7 10:48.661 -3L 1:30.123 BMW M235i Racing DNF 0 0 0
19 Marc Wieneke 1 - -9L - BMW M235i Racing DNF 0 0 0
20 André Gee 1 01:58.821 -9L 1:58.821 BMW M235i Racing DNF 0 0 0

Rennverlauf

Die schnellsten 5 pro Runde

Runde 1

Pos Rennpos Fahrer Zeit Diff
1 2 Franz Mayr 1:38.995 -
2 3 Patrick Pache 1:39.647 0:00.652
3 4 Marcel Jochheim 1:41.519 0:02.524
4 5 Reinhard Hiebl 1:41.874 0:02.879
5 6 Thomas Pache 1:42.309 0:03.314

Runde 2

Pos Rennpos Fahrer Zeit Diff
1 16 Stefan Ahlers 1:31.080 -
2 17 Robert Winkler 1:31.519 0:00.439
3 2 Patrick Pache 1:31.879 0:00.799
4 3 Thomas Pache 1:31.935 0:00.855
5 6 Georg Ortner 1:31.994 0:00.914

Runde 3

Pos Rennpos Fahrer Zeit Diff
1 16 Robert Winkler 1:30.054 -
2 3 Thomas Pache 1:30.394 0:00.340
3 1 Patrick Pache 1:30.570 0:00.516
4 2 Franz Mayr 1:31.561 0:01.507
5 4 Reinhard Hiebl 1:31.604 0:01.550

Runde 4

Pos Rennpos Fahrer Zeit Diff
1 3 Thomas Pache 1:29.957 -
2 1 Patrick Pache 1:30.203 0:00.246
3 6 Nicolas Schnabel 1:30.708 0:00.751
4 4 Georg Ortner 1:30.788 0:00.831
5 2 Franz Mayr 1:30.889 0:00.932

Runde 5

Pos Rennpos Fahrer Zeit Diff
1 1 Patrick Pache 1:29.921 -
2 5 Stefan Moebus 1:30.123 0:00.202
3 4 Georg Ortner 1:30.163 0:00.242
4 6 Nicolas Schnabel 1:30.611 0:00.690
5 3 Thomas Pache 1:30.833 0:00.912

Runde 6

Pos Rennpos Fahrer Zeit Diff
1 1 Patrick Pache 1:30.293 -
2 4 Georg Ortner 1:30.422 0:00.129
3 5 Stefan Moebus 1:30.431 0:00.138
4 6 Nicolas Schnabel 1:30.776 0:00.483
5 2 Franz Mayr 1:31.096 0:00.803

Runde 7

Pos Rennpos Fahrer Zeit Diff
1 4 Georg Ortner 1:30.064 -
2 5 Stefan Moebus 1:30.138 0:00.074
3 1 Patrick Pache 1:30.274 0:00.210
4 6 Nicolas Schnabel 1:31.304 0:01.240
5 2 Franz Mayr 1:31.476 0:01.412

Runde 8

Pos Rennpos Fahrer Zeit Diff
1 1 Patrick Pache 1:30.664 -
2 5 Nicolas Schnabel 1:30.815 0:00.151
3 2 Franz Mayr 1:31.051 0:00.387
4 3 Georg Ortner 1:31.412 0:00.748
5 4 Thomas Pache 1:31.545 0:00.881

Runde 9

Pos Rennpos Fahrer Zeit Diff
1 5 Nicolas Schnabel 1:30.842 -
2 1 Patrick Pache 1:30.880 0:00.038
3 8 Stefan Ahlers 1:30.968 0:00.126
4 6 Sebastian Bilstein 1:31.012 0:00.170
5 7 Robert Winkler 1:31.160 0:00.318

Runde 10

Pos Rennpos Fahrer Zeit Diff
1 8 Stefan Ahlers 1:30.515 -
2 7 Robert Winkler 1:30.800 0:00.285
3 3 Nicolas Schnabel 1:30.845 0:00.330
4 1 Patrick Pache 1:31.203 0:00.688
5 6 Sebastian Bilstein 1:31.210 0:00.695

SERVER

0 / 61
virtualracing.org #1 GTM
Training 1Lime Rock Park -- Uphill Chicane
0 / 81
virtualracing.org #3 FS
Training 1Oulton Park International NC
0 / 81
virtualracing.org #4 LSM
Training 1Spa-Francorchamps Endurance
0 / 34
virtualracing.org #5 VRF1S
Training 1Zandvoort 2021
0 / 34
virtualracing.org #6 VRCS
Training 1Donington Park National Circuit
0 / 81
virtualracing.org #P1 BTCC
QualifikationOulton Park International
0 / 81
virtualracing.org #P2 CA
Training 1Silverstone Grand Prix
0 / 34
virtualracing.org #P3 Mini
WarmUpSilverstone International
0 / 33
virtualracing.org #P4 IR18
Training 1Indianapolis Road Course
0/31
virtualracing.org#4 GTC Training Standard
TrainingDaytona International Speedway - Road Course
0/31
virtualracing.org#5 GTC Training A
TrainingDaytona International Speedway - Road Course
0/24
virtualracing.org#30 ALT Training
TrainingFuji Speedway - Grand Prix Circuit 1968
0/32
virtualracing.org#33 GTC Starttest
unbekanntDaytona International Speedway - Road Course